Time;durP1;ratioP1;P1;durP2;ratioP2;P2;SDS_P1;SDS_P2;PMS_P1;PMS_P2;Temp;Humidity;BMP_temperature;BMP_pressure;BME280_temperature;BME280_humidity;BME280_pressure;Samples;Min_cycle;Max_cycle;Signal;HPM_P1;HPM_P2
2021/04/14 00:01:19;;;;;;;;;;;20.80;27.30;;;;;;497190;239;1165;-68
2021/04/14 00:03:21;;;;;;;;;;;20.70;27.40;;;;;;497175;239;1154;-68
2021/04/14 00:05:22;;;;;;;;;;;20.70;27.30;;;;;;497269;239;1103;-68
2021/04/14 00:07:23;;;;;;;;;;;20.70;27.30;;;;;;497224;239;2129;-68
2021/04/14 00:09:24;;;;;;;;;;;20.80;27.20;;;;;;497138;239;1105;-68
2021/04/14 00:11:26;;;;;;;;;;;20.80;27.40;;;;;;497145;239;1125;-68
2021/04/14 00:13:29;;;;;;;;;;;20.70;27.40;;;;;;497235;239;1152;-68
2021/04/14 00:15:28;;;;;;;;;;;20.60;27.40;;;;;;497102;239;1769;-68
2021/04/14 00:17:30;;;;;;;;;;;20.60;27.40;;;;;;497245;239;973;-68
2021/04/14 00:19:31;;;;;;;;;;;20.60;27.40;;;;;;497212;239;1056;-68
2021/04/14 00:21:32;;;;;;;;;;;20.70;27.40;;;;;;497196;239;1201;-68
2021/04/14 00:23:33;;;;;;;;;;;20.60;27.50;;;;;;497180;239;1012;-68
2021/04/14 00:25:35;;;;;;;;;;;20.70;27.30;;;;;;497230;239;2161;-68
2021/04/14 00:27:36;;;;;;;;;;;20.70;27.40;;;;;;497286;238;1176;-68
2021/04/14 00:29:38;;;;;;;;;;;20.70;27.30;;;;;;497251;239;938;-68
2021/04/14 00:31:39;;;;;;;;;;;20.60;27.40;;;;;;497147;239;1150;-69
2021/04/14 00:33:40;;;;;;;;;;;20.50;27.40;;;;;;497214;239;929;-68
2021/04/14 00:35:41;;;;;;;;;;;20.50;27.50;;;;;;497180;239;1164;-68
2021/04/14 00:37:43;;;;;;;;;;;20.40;27.50;;;;;;497068;239;1113;-68
2021/04/14 00:39:44;;;;;;;;;;;20.50;27.50;;;;;;497168;239;1057;-68
2021/04/14 00:41:45;;;;;;;;;;;20.40;27.50;;;;;;497215;239;1210;-68
2021/04/14 00:43:47;;;;;;;;;;;20.30;27.60;;;;;;497212;239;1552;-68
2021/04/14 00:45:48;;;;;;;;;;;20.40;27.50;;;;;;497151;239;2186;-68
2021/04/14 00:47:49;;;;;;;;;;;20.30;27.60;;;;;;497195;239;1073;-68
2021/04/14 00:49:52;;;;;;;;;;;20.40;27.60;;;;;;497207;239;1119;-68
2021/04/14 00:51:53;;;;;;;;;;;20.40;27.60;;;;;;497100;239;1498;-68
2021/04/14 00:53:54;;;;;;;;;;;20.40;27.50;;;;;;497226;239;1027;-68
2021/04/14 00:55:55;;;;;;;;;;;20.40;27.50;;;;;;497173;239;1034;-68
2021/04/14 00:57:56;;;;;;;;;;;20.40;27.30;;;;;;497167;239;1292;-68
2021/04/14 00:59:58;;;;;;;;;;;20.40;27.40;;;;;;497134;239;1002;-68
2021/04/14 01:01:59;;;;;;;;;;;20.30;27.50;;;;;;497144;239;1050;-68
2021/04/14 01:04:00;;;;;;;;;;;20.30;27.50;;;;;;497409;239;972;-68
2021/04/14 01:06:02;;;;;;;;;;;20.40;27.50;;;;;;497218;239;2133;-68
2021/04/14 01:08:03;;;;;;;;;;;20.30;27.60;;;;;;497252;239;957;-68
2021/04/14 01:10:04;;;;;;;;;;;20.40;27.40;;;;;;497163;239;952;-68
2021/04/14 01:12:05;;;;;;;;;;;20.40;27.40;;;;;;497129;239;1217;-68
2021/04/14 01:14:07;;;;;;;;;;;20.50;27.40;;;;;;497221;239;1223;-68
2021/04/14 01:16:08;;;;;;;;;;;20.40;27.50;;;;;;497206;239;960;-69
2021/04/14 01:18:09;;;;;;;;;;;20.30;27.50;;;;;;497161;239;1114;-68
2021/04/14 01:20:10;;;;;;;;;;;20.30;27.50;;;;;;497141;239;941;-68
2021/04/14 01:22:12;;;;;;;;;;;20.30;27.50;;;;;;497155;239;991;-68
2021/04/14 01:24:13;;;;;;;;;;;20.30;27.50;;;;;;497214;239;986;-68
2021/04/14 01:26:14;;;;;;;;;;;20.30;27.60;;;;;;497149;239;2205;-68
2021/04/14 01:28:16;;;;;;;;;;;20.30;27.50;;;;;;497216;239;1169;-68
2021/04/14 01:30:17;;;;;;;;;;;20.20;27.60;;;;;;497255;239;982;-68
2021/04/14 01:32:18;;;;;;;;;;;20.20;27.60;;;;;;497316;239;1052;-68
2021/04/14 01:34:20;;;;;;;;;;;20.40;27.40;;;;;;497181;239;960;-68
2021/04/14 01:36:21;;;;;;;;;;;20.50;27.30;;;;;;497174;239;970;-68
2021/04/14 01:38:22;;;;;;;;;;;20.60;27.30;;;;;;497234;239;918;-68
2021/04/14 01:40:23;;;;;;;;;;;20.50;27.30;;;;;;497189;239;968;-68
2021/04/14 01:42:24;;;;;;;;;;;20.40;27.30;;;;;;497126;239;1098;-67
2021/04/14 01:44:26;;;;;;;;;;;20.30;27.40;;;;;;497159;239;1299;-67
2021/04/14 01:46:27;;;;;;;;;;;20.30;27.40;;;;;;497171;239;2142;-68
2021/04/14 01:48:28;;;;;;;;;;;20.30;27.40;;;;;;497223;239;989;-68
2021/04/14 01:50:30;;;;;;;;;;;20.30;27.30;;;;;;497104;239;974;-68
2021/04/14 01:52:31;;;;;;;;;;;20.40;27.30;;;;;;497199;239;1135;-68
2021/04/14 01:54:32;;;;;;;;;;;20.40;27.30;;;;;;497184;239;958;-68
2021/04/14 01:56:35;;;;;;;;;;;20.30;27.30;;;;;;497174;239;945;-68
2021/04/14 01:58:35;;;;;;;;;;;20.30;27.20;;;;;;497172;239;1331;-68
2021/04/14 02:00:37;;;;;;;;;;;20.40;27.20;;;;;;497204;239;929;-68
2021/04/14 02:02:37;;;;;;;;;;;20.40;27.20;;;;;;497092;239;1424;-68
2021/04/14 02:04:39;;;;;;;;;;;20.30;27.10;;;;;;497136;239;962;-68
2021/04/14 02:06:40;;;;;;;;;;;20.40;27.20;;;;;;497128;239;2189;-68
2021/04/14 02:08:41;;;;;;;;;;;20.30;27.10;;;;;;497251;239;952;-68
2021/04/14 02:10:42;;;;;;;;;;;20.30;27.20;;;;;;497240;239;1098;-68
2021/04/14 02:12:44;;;;;;;;;;;20.20;27.30;;;;;;497202;239;967;-68
2021/04/14 02:14:45;;;;;;;;;;;20.20;27.20;;;;;;497203;239;1215;-68
2021/04/14 02:16:46;;;;;;;;;;;20.20;27.30;;;;;;497316;239;1193;-68
2021/04/14 02:18:47;;;;;;;;;;;20.20;27.20;;;;;;497193;239;961;-68
2021/04/14 02:20:49;;;;;;;;;;;20.20;27.20;;;;;;497218;239;1276;-68
2021/04/14 02:22:50;;;;;;;;;;;20.30;27.20;;;;;;497211;239;1092;-68
2021/04/14 02:24:51;;;;;;;;;;;20.20;27.20;;;;;;497246;239;972;-68
2021/04/14 02:26:53;;;;;;;;;;;20.30;27.10;;;;;;497192;239;2169;-68
2021/04/14 02:28:54;;;;;;;;;;;20.30;27.10;;;;;;497263;239;1195;-68
2021/04/14 02:30:55;;;;;;;;;;;20.30;27.10;;;;;;497167;239;1097;-68
2021/04/14 02:32:56;;;;;;;;;;;20.30;27.10;;;;;;497201;239;1031;-68
2021/04/14 02:34:58;;;;;;;;;;;20.30;27.10;;;;;;497195;239;1156;-68
2021/04/14 02:36:59;;;;;;;;;;;20.20;27.10;;;;;;497201;239;1251;-68
2021/04/14 02:39:00;;;;;;;;;;;20.20;27.20;;;;;;497215;239;1012;-68
2021/04/14 02:41:02;;;;;;;;;;;20.10;27.20;;;;;;497196;239;983;-68
2021/04/14 02:43:04;;;;;;;;;;;20.10;27.20;;;;;;497209;239;1006;-68
2021/04/14 02:45:05;;;;;;;;;;;20.10;27.20;;;;;;497207;239;1183;-68
2021/04/14 02:47:07;;;;;;;;;;;20.10;27.20;;;;;;497220;239;2197;-68
2021/04/14 02:49:08;;;;;;;;;;;20.20;27.10;;;;;;497201;239;953;-68
2021/04/14 02:51:09;;;;;;;;;;;20.10;27.10;;;;;;497156;239;1123;-68
2021/04/14 02:53:10;;;;;;;;;;;20.20;27.10;;;;;;497212;239;1168;-68
2021/04/14 02:55:12;;;;;;;;;;;20.30;27.00;;;;;;497249;239;1156;-68
2021/04/14 02:57:13;;;;;;;;;;;20.20;27.10;;;;;;497131;239;1051;-68
2021/04/14 02:59:14;;;;;;;;;;;20.30;27.00;;;;;;497139;235;1329;-68
2021/04/14 03:01:16;;;;;;;;;;;20.20;27.10;;;;;;497116;239;1126;-68
2021/04/14 03:03:17;;;;;;;;;;;20.30;26.90;;;;;;496227;239;1068;-68
2021/04/14 03:05:20;;;;;;;;;;;20.20;27.00;;;;;;496250;238;956;-68
2021/04/14 03:07:19;;;;;;;;;;;20.10;27.10;;;;;;497058;239;2168;-68
2021/04/14 03:09:21;;;;;;;;;;;20.00;27.10;;;;;;497171;239;997;-68
2021/04/14 03:11:22;;;;;;;;;;;20.00;27.10;;;;;;497169;239;1170;-68
2021/04/14 03:13:25;;;;;;;;;;;20.00;27.10;;;;;;497178;239;985;-68
2021/04/14 03:15:24;;;;;;;;;;;20.10;27.10;;;;;;497139;239;1477;-68
2021/04/14 03:17:26;;;;;;;;;;;20.00;27.10;;;;;;497152;239;1124;-68
2021/04/14 03:19:27;;;;;;;;;;;20.00;27.00;;;;;;497218;239;984;-68
2021/04/14 03:21:28;;;;;;;;;;;20.10;27.10;;;;;;497184;239;1140;-68
2021/04/14 03:23:30;;;;;;;;;;;20.10;27.00;;;;;;497246;239;1010;-68
2021/04/14 03:25:31;;;;;;;;;;;20.20;26.90;;;;;;497114;239;1203;-68
2021/04/14 03:27:32;;;;;;;;;;;20.10;26.90;;;;;;497191;239;2129;-68
2021/04/14 03:29:34;;;;;;;;;;;20.10;27.00;;;;;;497175;239;1431;-68
2021/04/14 03:31:35;;;;;;;;;;;20.00;27.00;;;;;;497108;239;1181;-68
2021/04/14 03:33:36;;;;;;;;;;;20.00;27.00;;;;;;497191;239;965;-68
2021/04/14 03:35:38;;;;;;;;;;;20.00;27.00;;;;;;497224;239;1045;-68
2021/04/14 03:37:39;;;;;;;;;;;20.00;27.10;;;;;;497109;239;1171;-68
2021/04/14 03:39:40;;;;;;;;;;;20.00;27.00;;;;;;497199;239;1104;-69
2021/04/14 03:41:41;;;;;;;;;;;20.00;27.10;;;;;;497017;239;1269;-68
2021/04/14 03:43:43;;;;;;;;;;;20.00;27.00;;;;;;497199;239;951;-68
2021/04/14 03:45:46;;;;;;;;;;;20.00;27.00;;;;;;497139;239;1184;-68
2021/04/14 03:47:45;;;;;;;;;;;20.10;26.90;;;;;;496968;239;2121;-68
2021/04/14 03:49:47;;;;;;;;;;;20.00;27.00;;;;;;497183;239;944;-68
2021/04/14 03:51:48;;;;;;;;;;;20.00;27.00;;;;;;496117;239;1178;-68
2021/04/14 03:53:49;;;;;;;;;;;20.00;26.90;;;;;;496255;239;939;-68
2021/04/14 03:55:51;;;;;;;;;;;19.90;27.00;;;;;;496193;239;1293;-68
2021/04/14 03:57:52;;;;;;;;;;;20.00;27.10;;;;;;496206;238;1090;-68
2021/04/14 03:59:53;;;;;;;;;;;20.00;27.10;;;;;;496210;238;1141;-68
2021/04/14 04:01:54;;;;;;;;;;;20.00;27.10;;;;;;496183;238;1220;-68
2021/04/14 04:03:56;;;;;;;;;;;20.20;26.90;;;;;;496165;239;966;-68
2021/04/14 04:05:57;;;;;;;;;;;20.10;27.00;;;;;;496136;238;1164;-67
2021/04/14 04:07:58;;;;;;;;;;;20.00;27.00;;;;;;496073;238;2161;-69
2021/04/14 04:09:59;;;;;;;;;;;20.10;27.10;;;;;;496153;238;954;-69
2021/04/14 04:12:02;;;;;;;;;;;20.10;27.10;;;;;;496062;239;1162;-67
2021/04/14 04:14:03;;;;;;;;;;;20.00;27.10;;;;;;496175;239;1280;-68
2021/04/14 04:16:04;;;;;;;;;;;20.00;27.10;;;;;;496186;238;1205;-69
2021/04/14 04:18:05;;;;;;;;;;;20.10;27.00;;;;;;496144;238;1156;-68
2021/04/14 04:20:06;;;;;;;;;;;20.00;27.00;;;;;;496152;239;962;-69
2021/04/14 04:22:08;;;;;;;;;;;20.00;27.00;;;;;;496133;239;1183;-69
2021/04/14 04:24:09;;;;;;;;;;;20.00;27.10;;;;;;496160;238;1040;-67
2021/04/14 04:26:10;;;;;;;;;;;19.90;27.10;;;;;;496097;239;1004;-67
2021/04/14 04:28:12;;;;;;;;;;;19.90;27.10;;;;;;496074;239;2169;-68
2021/04/14 04:30:13;;;;;;;;;;;19.90;27.10;;;;;;496113;238;1140;-69
2021/04/14 04:32:14;;;;;;;;;;;19.90;27.10;;;;;;496099;239;1064;-70
2021/04/14 04:34:15;;;;;;;;;;;19.80;27.10;;;;;;496099;238;1185;-68
2021/04/14 04:36:17;;;;;;;;;;;19.80;27.20;;;;;;497034;238;1116;-69
2021/04/14 04:38:18;;;;;;;;;;;19.80;27.20;;;;;;497058;239;1057;-67
2021/04/14 04:40:19;;;;;;;;;;;19.90;27.10;;;;;;496974;239;1244;-68
2021/04/14 04:42:20;;;;;;;;;;;19.90;27.20;;;;;;497074;239;1178;-68
2021/04/14 04:44:22;;;;;;;;;;;20.00;27.00;;;;;;497313;237;1171;-68
2021/04/14 04:46:23;;;;;;;;;;;20.00;27.10;;;;;;497017;239;1199;-69
2021/04/14 04:48:24;;;;;;;;;;;19.90;27.00;;;;;;497010;239;2174;-67
2021/04/14 04:50:27;;;;;;;;;;;19.90;27.10;;;;;;496934;239;1140;-68
2021/04/14 04:52:28;;;;;;;;;;;19.90;27.10;;;;;;496973;239;1498;-69
2021/04/14 04:54:29;;;;;;;;;;;19.90;27.10;;;;;;496948;239;1023;-69
2021/04/14 04:56:31;;;;;;;;;;;19.80;27.10;;;;;;496987;239;1054;-69
2021/04/14 04:58:32;;;;;;;;;;;19.80;27.10;;;;;;496994;239;1179;-69
2021/04/14 05:00:33;;;;;;;;;;;19.70;27.20;;;;;;496858;239;1323;-69
2021/04/14 05:02:35;;;;;;;;;;;19.80;27.20;;;;;;496882;239;1088;-69
2021/04/14 05:04:36;;;;;;;;;;;19.80;27.20;;;;;;497069;239;995;-69
2021/04/14 05:06:37;;;;;;;;;;;19.80;27.20;;;;;;497043;239;1164;-69
2021/04/14 05:08:38;;;;;;;;;;;19.80;27.20;;;;;;496915;239;2178;-69
2021/04/14 05:10:40;;;;;;;;;;;20.00;27.10;;;;;;496920;239;1094;-68
2021/04/14 05:12:41;;;;;;;;;;;19.90;27.00;;;;;;496967;239;1039;-69
2021/04/14 05:14:42;;;;;;;;;;;20.00;27.10;;;;;;496992;239;1061;-69
2021/04/14 05:16:44;;;;;;;;;;;19.90;27.00;;;;;;496862;239;1285;-69
2021/04/14 05:18:45;;;;;;;;;;;19.90;27.10;;;;;;496994;239;1013;-67
2021/04/14 05:20:46;;;;;;;;;;;20.00;27.10;;;;;;496911;235;1193;-67
2021/04/14 05:22:47;;;;;;;;;;;19.90;27.00;;;;;;497022;239;1025;-67
2021/04/14 05:24:49;;;;;;;;;;;19.90;27.10;;;;;;497062;239;1046;-68
2021/04/14 05:26:50;;;;;;;;;;;19.90;27.10;;;;;;496871;239;1190;-68
2021/04/14 05:28:51;;;;;;;;;;;19.90;27.10;;;;;;496942;239;2166;-68
2021/04/14 05:30:52;;;;;;;;;;;19.90;27.10;;;;;;496855;239;1307;-67
2021/04/14 05:32:54;;;;;;;;;;;19.90;27.10;;;;;;496950;239;1144;-68
2021/04/14 05:34:55;;;;;;;;;;;19.80;27.10;;;;;;496987;239;990;-68
2021/04/14 05:36:56;;;;;;;;;;;20.00;27.00;;;;;;497013;239;1148;-68
2021/04/14 05:38:58;;;;;;;;;;;20.00;27.00;;;;;;496924;239;1234;-68
2021/04/14 05:40:59;;;;;;;;;;;20.10;27.00;;;;;;496880;239;1185;-68
2021/04/14 05:43:00;;;;;;;;;;;20.00;26.90;;;;;;496953;239;1112;-69
2021/04/14 05:45:01;;;;;;;;;;;19.90;27.10;;;;;;496850;239;1076;-69
2021/04/14 05:47:03;;;;;;;;;;;19.90;27.10;;;;;;496922;239;1136;-69
2021/04/14 05:49:04;;;;;;;;;;;19.90;27.10;;;;;;496950;239;2189;-69
2021/04/14 05:51:05;;;;;;;;;;;19.90;27.00;;;;;;496874;235;1254;-69
2021/04/14 05:53:06;;;;;;;;;;;19.90;27.10;;;;;;496962;239;1191;-69
2021/04/14 05:55:08;;;;;;;;;;;19.90;27.10;;;;;;496926;239;1021;-69
2021/04/14 05:57:09;;;;;;;;;;;19.90;27.10;;;;;;496813;239;1198;-69
2021/04/14 05:59:12;;;;;;;;;;;19.90;27.00;;;;;;496869;239;1030;-69
2021/04/14 06:01:13;;;;;;;;;;;19.90;27.00;;;;;;496798;239;1380;-69
2021/04/14 06:03:14;;;;;;;;;;;20.00;27.00;;;;;;496906;239;1155;-69
2021/04/14 06:05:15;;;;;;;;;;;20.00;26.90;;;;;;496875;239;1003;-69
2021/04/14 06:07:16;;;;;;;;;;;20.00;26.90;;;;;;496845;239;1043;-69
2021/04/14 06:09:18;;;;;;;;;;;20.10;26.90;;;;;;496631;239;2106;-67
2021/04/14 06:11:19;;;;;;;;;;;20.10;26.80;;;;;;496750;239;1057;-69
2021/04/14 06:13:20;;;;;;;;;;;20.30;26.70;;;;;;496779;239;1156;-69
2021/04/14 06:15:21;;;;;;;;;;;20.10;26.70;;;;;;496852;239;1064;-69
2021/04/14 06:17:23;;;;;;;;;;;20.10;26.80;;;;;;496777;239;1383;-69
2021/04/14 06:19:24;;;;;;;;;;;20.10;26.80;;;;;;496750;239;1097;-69
2021/04/14 06:21:25;;;;;;;;;;;20.10;26.80;;;;;;495593;239;1088;-69
2021/04/14 06:23:27;;;;;;;;;;;20.10;26.80;;;;;;495838;238;1063;-69
2021/04/14 06:25:30;;;;;;;;;;;20.20;26.80;;;;;;495852;238;1130;-69
2021/04/14 06:27:34;;;;;;;;;;;20.10;26.80;;;;;;496622;239;1501;-68
2021/04/14 06:29:33;;;;;;;;;;;20.10;26.80;;;;;;496557;239;1310;-68
2021/04/14 06:31:39;;;;;;;;;;;20.20;26.80;;;;;;495769;239;1277;-68
2021/04/14 06:33:37;;;;;;;;;;;20.30;26.80;;;;;;496487;239;1342;-68
2021/04/14 06:35:37;;;;;;;;;;;20.40;26.70;;;;;;496391;239;1254;-70
2021/04/14 06:37:38;;;;;;;;;;;20.30;26.70;;;;;;496600;239;1119;-69
2021/04/14 06:39:39;;;;;;;;;;;20.30;26.70;;;;;;496779;239;1068;-69
2021/04/14 06:41:55;;;;;;;;;;;20.30;26.70;;;;;;496650;239;1202;-69
2021/04/14 06:43:54;;;;;;;;;;;20.20;26.80;;;;;;496598;239;1397;-69
2021/04/14 06:45:55;;;;;;;;;;;20.30;26.80;;;;;;496559;239;1179;-69
2021/04/14 06:47:57;;;;;;;;;;;20.30;26.80;;;;;;496720;239;2228;-69
2021/04/14 06:49:58;;;;;;;;;;;20.20;26.80;;;;;;496682;239;1076;-69
2021/04/14 06:51:59;;;;;;;;;;;20.30;26.80;;;;;;496625;237;1132;-69
2021/04/14 06:54:01;;;;;;;;;;;20.30;26.80;;;;;;496571;239;1166;-69
2021/04/14 06:56:02;;;;;;;;;;;20.40;26.70;;;;;;496408;239;1189;-69
2021/04/14 06:58:04;;;;;;;;;;;20.50;26.70;;;;;;496567;239;1055;-69
2021/04/14 07:00:05;;;;;;;;;;;20.60;26.60;;;;;;496538;239;1111;-69
2021/04/14 07:02:06;;;;;;;;;;;20.60;26.50;;;;;;496483;239;1397;-69
2021/04/14 07:04:08;;;;;;;;;;;20.60;26.50;;;;;;496285;239;1347;-69
2021/04/14 07:06:09;;;;;;;;;;;20.50;26.50;;;;;;496429;239;1399;-68
2021/04/14 07:08:10;;;;;;;;;;;20.60;26.50;;;;;;497069;239;2181;-68
2021/04/14 07:10:12;;;;;;;;;;;20.50;26.50;;;;;;496361;239;1243;-67
2021/04/14 07:12:13;;;;;;;;;;;20.60;26.50;;;;;;496424;239;1102;-68
2021/04/14 07:14:14;;;;;;;;;;;20.50;26.50;;;;;;496474;239;1045;-69
2021/04/14 07:16:16;;;;;;;;;;;20.50;26.50;;;;;;496240;239;1170;-68
2021/04/14 07:18:17;;;;;;;;;;;20.60;26.60;;;;;;496499;239;1219;-68
2021/04/14 07:20:18;;;;;;;;;;;20.60;26.50;;;;;;496375;239;1079;-69
2021/04/14 07:22:19;;;;;;;;;;;20.60;26.40;;;;;;496446;239;1337;-69
2021/04/14 07:24:21;;;;;;;;;;;20.70;26.40;;;;;;496615;239;1074;-69
2021/04/14 07:26:22;;;;;;;;;;;20.70;26.30;;;;;;496343;239;1369;-68
2021/04/14 07:28:23;;;;;;;;;;;20.70;26.40;;;;;;496642;239;2192;-67
2021/04/14 07:30:25;;;;;;;;;;;20.80;26.30;;;;;;495521;239;1039;-69
2021/04/14 07:32:26;;;;;;;;;;;20.70;26.30;;;;;;495455;239;1170;-69
2021/04/14 07:34:27;;;;;;;;;;;20.70;26.40;;;;;;485712;242;1061;-68
2021/04/14 07:36:29;;;;;;;;;;;20.70;26.40;;;;;;485920;244;1215;-68
2021/04/14 07:38:30;;;;;;;;;;;20.60;26.40;;;;;;478425;247;1047;-67
2021/04/14 07:40:31;;;;;;;;;;;20.70;26.50;;;;;;478316;248;1107;-67
2021/04/14 07:42:34;;;;;;;;;;;20.70;26.40;;;;;;478526;247;1151;-68
2021/04/14 07:44:34;;;;;;;;;;;20.70;26.50;;;;;;478628;248;1235;-68
2021/04/14 07:46:35;;;;;;;;;;;20.80;26.40;;;;;;478551;248;1050;-69
2021/04/14 07:48:39;;;;;;;;;;;20.70;26.40;;;;;;478497;247;2190;-69
2021/04/14 07:50:40;;;;;;;;;;;20.70;26.40;;;;;;478304;248;1200;-68
2021/04/14 07:52:41;;;;;;;;;;;20.80;26.40;;;;;;478225;246;1108;-68
2021/04/14 07:54:43;;;;;;;;;;;20.80;26.30;;;;;;478055;247;1192;-68
2021/04/14 07:56:44;;;;;;;;;;;20.70;26.30;;;;;;478364;248;1135;-69
2021/04/14 07:58:45;;;;;;;;;;;20.70;26.30;;;;;;478441;247;1095;-67
2021/04/14 08:00:46;;;;;;;;;;;20.70;26.30;;;;;;478476;247;1142;-68
2021/04/14 08:02:48;;;;;;;;;;;20.70;26.40;;;;;;478580;248;1196;-67
2021/04/14 08:04:51;;;;;;;;;;;20.70;26.40;;;;;;478485;248;1054;-68
2021/04/14 08:06:50;;;;;;;;;;;20.70;26.50;;;;;;478429;248;1753;-68
2021/04/14 08:08:51;;;;;;;;;;;20.80;26.50;;;;;;478517;248;2194;-68
2021/04/14 08:10:53;;;;;;;;;;;20.70;26.50;;;;;;478453;247;1362;-69
2021/04/14 08:12:54;;;;;;;;;;;20.90;26.50;;;;;;478520;247;1117;-68
2021/04/14 08:14:55;;;;;;;;;;;20.90;26.30;;;;;;478673;247;1165;-68
2021/04/14 08:17:02;;;;;;;;;;;20.90;26.40;;;;;;479185;247;1073;-68
2021/04/14 08:18:58;;;;;;;;;;;20.80;26.40;;;;;;478267;248;1405;-68
2021/04/14 08:20:59;;;;;;;;;;;20.80;26.40;;;;;;478301;247;1361;-67
2021/04/14 08:23:00;;;;;;;;;;;20.90;26.40;;;;;;478476;247;1153;-68
2021/04/14 08:25:02;;;;;;;;;;;21.00;26.40;;;;;;478486;248;1082;-68
2021/04/14 08:27:03;;;;;;;;;;;21.00;26.40;;;;;;478504;247;1118;-69
2021/04/14 08:29:05;;;;;;;;;;;20.90;26.40;;;;;;478532;248;2193;-69
2021/04/14 08:31:06;;;;;;;;;;;20.90;26.40;;;;;;478518;247;1191;-69
2021/04/14 08:33:07;;;;;;;;;;;20.80;26.30;;;;;;478519;247;1217;-70
2021/04/14 08:35:10;;;;;;;;;;;20.80;26.40;;;;;;478470;247;1100;-67
2021/04/14 08:37:10;;;;;;;;;;;20.80;26.30;;;;;;478954;248;1869;-68
2021/04/14 08:39:11;;;;;;;;;;;20.80;26.30;;;;;;478498;248;1127;-67
2021/04/14 08:41:13;;;;;;;;;;;20.90;26.30;;;;;;478339;247;1359;-68
2021/04/14 08:43:14;;;;;;;;;;;20.80;26.20;;;;;;478464;248;1083;-67
2021/04/14 08:45:16;;;;;;;;;;;20.80;26.20;;;;;;478260;249;1289;-67
2021/04/14 08:47:16;;;;;;;;;;;20.80;26.20;;;;;;478400;248;1335;-68
2021/04/14 08:49:18;;;;;;;;;;;21.00;26.10;;;;;;478465;248;2201;-69
2021/04/14 08:51:19;;;;;;;;;;;20.90;26.00;;;;;;478250;249;1216;-70
2021/04/14 08:53:21;;;;;;;;;;;21.00;26.10;;;;;;477436;249;1121;-69
2021/04/14 08:55:23;;;;;;;;;;;20.80;26.10;;;;;;478361;247;1348;-67
2021/04/14 08:57:23;;;;;;;;;;;20.80;26.10;;;;;;478411;248;1919;-68
2021/04/14 08:59:24;;;;;;;;;;;20.80;26.10;;;;;;478575;248;1247;-69
2021/04/14 09:01:26;;;;;;;;;;;20.80;26.10;;;;;;478561;247;1207;-70
2021/04/14 09:03:27;;;;;;;;;;;20.90;26.10;;;;;;478475;247;1127;-68
2021/04/14 09:05:28;;;;;;;;;;;20.80;26.10;;;;;;478278;248;1097;-68
2021/04/14 09:07:31;;;;;;;;;;;20.90;26.00;;;;;;478338;247;1176;-68
2021/04/14 09:09:33;;;;;;;;;;;20.90;26.00;;;;;;478340;248;2186;-67
2021/04/14 09:11:33;;;;;;;;;;;20.90;25.90;;;;;;478193;248;1318;-68
2021/04/14 09:13:35;;;;;;;;;;;20.90;26.00;;;;;;478401;248;1336;-68
2021/04/14 09:15:37;;;;;;;;;;;21.00;25.90;;;;;;478405;248;1467;-69
2021/04/14 09:17:37;;;;;;;;;;;21.00;25.80;;;;;;478371;247;1304;-70
2021/04/14 09:19:39;;;;;;;;;;;21.00;25.70;;;;;;477646;248;1122;-70
2021/04/14 09:21:40;;;;;;;;;;;20.80;25.80;;;;;;478111;247;1246;-69
2021/04/14 09:23:41;;;;;;;;;;;20.90;25.90;;;;;;478460;247;1090;-69
2021/04/14 09:25:42;;;;;;;;;;;20.90;25.80;;;;;;478331;248;1111;-69
2021/04/14 09:27:44;;;;;;;;;;;20.80;25.80;;;;;;478933;248;1056;-69
2021/04/14 09:29:45;;;;;;;;;;;20.80;25.80;;;;;;478550;248;2186;-70
2021/04/14 09:31:46;;;;;;;;;;;20.90;25.90;;;;;;478577;247;1150;-70
2021/04/14 09:33:50;;;;;;;;;;;20.90;25.90;;;;;;478465;248;1193;-67
2021/04/14 09:35:49;;;;;;;;;;;21.00;25.90;;;;;;478105;244;1448;-68
2021/04/14 09:37:52;;;;;;;;;;;21.10;25.90;;;;;;478712;247;1121;-68
2021/04/14 09:39:51;;;;;;;;;;;21.00;25.90;;;;;;478222;248;1284;-68
2021/04/14 09:41:53;;;;;;;;;;;21.10;25.80;;;;;;485472;244;1216;-68
2021/04/14 09:43:54;;;;;;;;;;;21.10;25.70;;;;;;495979;240;1185;-69
2021/04/14 09:45:55;;;;;;;;;;;21.20;25.70;;;;;;496301;239;1191;-70
2021/04/14 09:47:57;;;;;;;;;;;21.20;25.60;;;;;;496558;239;1213;-70
2021/04/14 09:49:58;;;;;;;;;;;21.20;25.50;;;;;;496434;239;2177;-70
2021/04/14 09:51:59;;;;;;;;;;;21.30;25.50;;;;;;496292;239;1179;-68
2021/04/14 09:54:01;;;;;;;;;;;21.20;25.50;;;;;;496401;239;1098;-68
2021/04/14 09:56:03;;;;;;;;;;;21.10;25.40;;;;;;496248;239;1038;-67
2021/04/14 09:58:03;;;;;;;;;;;21.20;25.40;;;;;;496291;239;1238;-67
2021/04/14 10:00:05;;;;;;;;;;;21.30;25.40;;;;;;496303;239;1130;-67
2021/04/14 10:02:06;;;;;;;;;;;21.30;25.30;;;;;;496375;239;1063;-68
2021/04/14 10:04:07;;;;;;;;;;;21.30;25.20;;;;;;496414;239;1137;-68
2021/04/14 10:06:08;;;;;;;;;;;21.30;25.20;;;;;;496362;239;1139;-68
2021/04/14 10:08:10;;;;;;;;;;;21.30;25.20;;;;;;496374;239;1110;-68
2021/04/14 10:10:11;;;;;;;;;;;21.40;25.10;;;;;;496074;239;2176;-67
2021/04/14 10:12:12;;;;;;;;;;;21.40;25.00;;;;;;496296;239;1160;-68
2021/04/14 10:14:14;;;;;;;;;;;21.30;25.00;;;;;;496420;239;1111;-68
2021/04/14 10:16:15;;;;;;;;;;;21.60;25.00;;;;;;496366;239;1275;-68
2021/04/14 10:18:16;;;;;;;;;;;21.40;25.00;;;;;;496469;239;1088;-69
2021/04/14 10:20:18;;;;;;;;;;;21.40;24.90;;;;;;496560;239;1213;-67
2021/04/14 10:22:19;;;;;;;;;;;21.30;24.90;;;;;;496485;239;1467;-68
2021/04/14 10:24:20;;;;;;;;;;;21.30;25.00;;;;;;496293;239;1106;-68
2021/04/14 10:26:21;;;;;;;;;;;21.30;25.00;;;;;;496359;239;1113;-68
2021/04/14 10:28:23;;;;;;;;;;;21.40;24.90;;;;;;496388;239;1100;-68
2021/04/14 10:30:24;;;;;;;;;;;21.40;24.80;;;;;;496308;239;2181;-68
2021/04/14 10:32:25;;;;;;;;;;;21.40;24.90;;;;;;496199;239;1097;-68
2021/04/14 10:34:26;;;;;;;;;;;21.30;24.80;;;;;;496415;239;1154;-68
2021/04/14 10:36:28;;;;;;;;;;;21.30;24.80;;;;;;495694;239;1067;-68
2021/04/14 10:38:29;;;;;;;;;;;21.40;24.70;;;;;;496411;239;1116;-69
2021/04/14 10:40:30;;;;;;;;;;;21.50;24.80;;;;;;495405;239;1107;-68
2021/04/14 10:42:31;;;;;;;;;;;21.40;24.80;;;;;;496312;239;1091;-68
2021/04/14 10:44:33;;;;;;;;;;;21.40;24.70;;;;;;496485;239;1132;-68
2021/04/14 10:46:35;;;;;;;;;;;21.40;24.80;;;;;;496264;238;1080;-68
2021/04/14 10:48:35;;;;;;;;;;;21.40;24.70;;;;;;496332;238;1375;-70
2021/04/14 10:50:37;;;;;;;;;;;21.40;24.70;;;;;;496386;239;2172;-69
2021/04/14 10:52:38;;;;;;;;;;;21.40;24.70;;;;;;496440;239;1105;-70
2021/04/14 10:54:39;;;;;;;;;;;21.50;24.70;;;;;;496255;239;1084;-69
2021/04/14 10:56:41;;;;;;;;;;;21.50;24.70;;;;;;496121;239;1485;-67
2021/04/14 10:58:42;;;;;;;;;;;21.40;24.70;;;;;;496303;239;1163;-68
2021/04/14 11:00:43;;;;;;;;;;;21.50;24.80;;;;;;496164;239;1071;-67
2021/04/14 11:02:45;;;;;;;;;;;21.50;24.70;;;;;;496229;239;1274;-68
2021/04/14 11:04:46;;;;;;;;;;;21.50;24.70;;;;;;496251;239;1146;-69
2021/04/14 11:06:47;;;;;;;;;;;21.50;24.60;;;;;;496424;239;1207;-68
2021/04/14 11:08:49;;;;;;;;;;;21.60;24.60;;;;;;496666;239;1225;-68
2021/04/14 11:10:50;;;;;;;;;;;21.70;24.50;;;;;;496509;239;2180;-68
2021/04/14 11:12:51;;;;;;;;;;;21.60;24.60;;;;;;496641;239;1078;-68
2021/04/14 11:14:52;;;;;;;;;;;21.60;24.60;;;;;;496479;239;1169;-68
2021/04/14 11:16:54;;;;;;;;;;;21.60;24.60;;;;;;496490;239;1074;-68
2021/04/14 11:18:55;;;;;;;;;;;21.70;24.50;;;;;;496448;239;1121;-67
2021/04/14 11:21:00;;;;;;;;;;;21.70;24.50;;;;;;496460;239;1162;-68
2021/04/14 11:22:58;;;;;;;;;;;21.70;24.50;;;;;;496385;239;1391;-68
2021/04/14 11:25:00;;;;;;;;;;;21.80;24.40;;;;;;496495;239;1104;-68
2021/04/14 11:27:01;;;;;;;;;;;21.90;24.30;;;;;;496532;239;1093;-70
2021/04/14 11:29:02;;;;;;;;;;;21.90;24.30;;;;;;496550;239;1046;-69
2021/04/14 11:31:04;;;;;;;;;;;21.90;24.40;;;;;;496342;239;2194;-69
2021/04/14 11:33:05;;;;;;;;;;;22.00;24.30;;;;;;496452;239;1095;-68
2021/04/14 11:35:06;;;;;;;;;;;22.00;24.30;;;;;;496535;236;1345;-68
2021/04/14 11:37:07;;;;;;;;;;;22.10;24.30;;;;;;496560;239;1204;-68
2021/04/14 11:39:08;;;;;;;;;;;22.00;24.30;;;;;;496484;239;1168;-68
2021/04/14 11:41:10;;;;;;;;;;;22.00;24.30;;;;;;496422;239;1211;-68
2021/04/14 11:43:11;;;;;;;;;;;22.10;24.30;;;;;;496539;239;1129;-68
2021/04/14 11:45:12;;;;;;;;;;;22.10;24.30;;;;;;496557;239;1130;-68
2021/04/14 11:47:14;;;;;;;;;;;22.10;24.30;;;;;;496554;239;1124;-69
2021/04/14 11:49:15;;;;;;;;;;;22.20;24.20;;;;;;496553;239;1081;-68
2021/04/14 11:51:16;;;;;;;;;;;22.20;24.10;;;;;;496419;239;2157;-67
2021/04/14 11:53:17;;;;;;;;;;;22.10;24.10;;;;;;496582;239;1190;-68
2021/04/14 11:55:19;;;;;;;;;;;22.20;24.00;;;;;;496495;239;1078;-67
2021/04/14 11:57:20;;;;;;;;;;;22.20;24.00;;;;;;496465;239;1114;-68